Wetterdaten: Woche 20.10.14 - 26.10.14 (KW43)
Datum Zeit Temp. A. Feuchte A. Luftdruck Regen Wind Richtung Sonnenschein ET UV Solar Taupunkt Windchill Windben
20.10.2014 00:00 13,8 C 95 % 1018,3 hPa 0,0 l/m 3,5 km/h (1 Bft) S-SW 0,00 h 0,000 mm 0,0 UV-I 0 W/m 12,9 C 13,8 C 5,9 km/h (2 Bft)
20.10.2014 01:00 13,7 C 93 % 1018,1 hPa 0,0 l/m 2,4 km/h (1 Bft) S-SW 0,00 h 0,000 mm 0,0 UV-I 0 W/m 12,6 C 13,7 C 4,8 km/h (1 Bft)
20.10.2014 02:00 13,3 C 93 % 1018,1 hPa 0,0 l/m 1,5 km/h (1 Bft) W-NW 0,00 h 0,000 mm 0,0 UV-I 0 W/m 12,2 C 13,3 C 3,6 km/h (1 Bft)
20.10.2014 03:00 13,1 C 95 % 1017,9 hPa 0,0 l/m 2,8 km/h (1 Bft) W-NW 0,00 h 0,000 mm 0,0 UV-I 0 W/m 12,4 C 13,1 C 4,7 km/h (1 Bft)
20.10.2014 04:00 14,0 C 95 % 1017,6 hPa 0,0 l/m 4,6 km/h (1 Bft) S-SW 0,00 h 0,000 mm 0,0 UV-I 0 W/m 13,1 C 13,8 C 7,9 km/h (2 Bft)
20.10.2014 05:00 14,5 C 93 % 1017,1 hPa 0,0 l/m 6,2 km/h (2 Bft) S-SW 0,00 h 0,000 mm 0,0 UV-I 0 W/m 13,3 C 14,2 C 10,4 km/h (2 Bft)
20.10.2014 06:00 14,3 C 91 % 1017,2 hPa 0,0 l/m 7,9 km/h (2 Bft) NW 0,00 h 0,000 mm 0,0 UV-I 0 W/m 12,9 C 13,3 C 11,9 km/h (2 Bft)
20.10.2014 07:00 13,5 C 92 % 1017,4 hPa 0,0 l/m 4,9 km/h (1 Bft) W 0,00 h 0,000 mm 0,0 UV-I 5 W/m 12,2 C 13,4 C 7,7 km/h (2 Bft)
20.10.2014 08:00 13,4 C 94 % 1017,6 hPa 0,0 l/m 3,0 km/h (1 Bft) W-SW 0,00 h 0,000 mm 0,0 UV-I 10 W/m 12,5 C 13,4 C 5,3 km/h (1 Bft)
20.10.2014 09:00 13,7 C 94 % 1017,8 hPa 0,2 l/m 2,2 km/h (1 Bft) W-SW 0,00 h 0,000 mm 0,0 UV-I 12 W/m 12,7 C 13,7 C 4,0 km/h (1 Bft)
20.10.2014 10:00 13,8 C 95 % 1017,7 hPa 0,0 l/m 5,0 km/h (1 Bft) W-SW 0,18 h 0,000 mm 0,0 UV-I 33 W/m 13,0 C 13,7 C 8,4 km/h (2 Bft)
20.10.2014 11:00 13,8 C 93 % 1017,6 hPa 0,0 l/m 6,0 km/h (2 Bft) W-SW 0,25 h 0,025 mm 0,5 UV-I 43 W/m 12,8 C 13,4 C 9,4 km/h (2 Bft)
20.10.2014 12:00 13,7 C 92 % 1017,4 hPa 0,2 l/m 7,1 km/h (2 Bft) W-SW 1,00 h 0,025 mm 1,0 UV-I 139 W/m 12,5 C 13,1 C 11,1 km/h (2 Bft)
20.10.2014 13:00 14,4 C 90 % 1016,9 hPa 0,0 l/m 9,8 km/h (2 Bft) W-SW 1,00 h 0,076 mm 1,5 UV-I 215 W/m 12,8 C 12,6 C 14,0 km/h (3 Bft)
20.10.2014 14:00 14,9 C 88 % 1016,3 hPa 0,0 l/m 9,3 km/h (2 Bft) W-SW 1,00 h 0,127 mm 1,3 UV-I 201 W/m 12,9 C 13,4 C 13,5 km/h (3 Bft)
20.10.2014 15:00 14,9 C 88 % 1015,8 hPa 0,0 l/m 6,8 km/h (2 Bft) W-SW 1,00 h 0,127 mm 0,7 UV-I 108 W/m 12,9 C 14,3 C 10,2 km/h (2 Bft)
20.10.2014 16:00 15,0 C 87 % 1015,5 hPa 0,0 l/m 8,2 km/h (2 Bft) W-SW 0,70 h 0,076 mm 0,5 UV-I 60 W/m 12,8 C 13,9 C 12,4 km/h (2 Bft)
20.10.2014 17:00 14,8 C 87 % 1015,1 hPa 0,0 l/m 9,7 km/h (2 Bft) W-SW 0,00 h 0,051 mm 0,0 UV-I 24 W/m 12,6 C 13,1 C 14,8 km/h (3 Bft)
20.10.2014 18:00 14,3 C 87 % 1015,1 hPa 0,0 l/m 8,4 km/h (2 Bft) W-SW 0,00 h 0,025 mm 0,0 UV-I 0 W/m 12,1 C 13,2 C 12,7 km/h (3 Bft)
20.10.2014 19:00 13,9 C 88 % 1014,8 hPa 0,0 l/m 5,6 km/h (2 Bft) W-SW 0,00 h 0,025 mm 0,0 UV-I 0 W/m 11,9 C 13,8 C 9,0 km/h (2 Bft)
20.10.2014 20:00 13,6 C 89 % 1014,6 hPa 0,0 l/m 1,2 km/h (1 Bft) W-NW 0,00 h 0,025 mm 0,0 UV-I 0 W/m 11,9 C 13,6 C 3,1 km/h (1 Bft)
20.10.2014 21:00 13,0 C 91 % 1014,5 hPa 0,0 l/m 0,4 km/h (0 Bft) N 0,00 h 0,000 mm 0,0 UV-I 0 W/m 11,6 C 13,0 C 1,1 km/h (0 Bft)
20.10.2014 22:00 12,2 C 92 % 1014,5 hPa 0,0 l/m 0,2 km/h (0 Bft) W-NW 0,00 h 0,000 mm 0,0 UV-I 0 W/m 11,0 C 12,2 C 0,9 km/h (0 Bft)
20.10.2014 23:00 11,4 C 93 % 1014,2 hPa 0,0 l/m 0,3 km/h (0 Bft) W-NW 0,00 h 0,000 mm 0,0 UV-I 0 W/m 10,3 C 11,4 C 1,5 km/h (1 Bft)
21.10.2014 00:00 10,7 C 94 % 1013,8 hPa 0,0 l/m 0,1 km/h (0 Bft) N 0,00 h 0,000 mm 0,0 UV-I 0 W/m 9,7 C 10,7 C 0,4 km/h (0 Bft)
21.10.2014 01:00 9,8 C 94 % 1013,8 hPa 0,0 l/m 0,0 km/h (0 Bft) N 0,00 h 0,000 mm 0,0 UV-I 0 W/m 8,8 C 9,8 C 0,1 km/h (0 Bft)
21.10.2014 02:00 8,7 C 94 % 1013,8 hPa 0,0 l/m 0,0 km/h (0 Bft) N 0,00 h 0,000 mm 0,0 UV-I 0 W/m 7,8 C 8,7 C 0,1 km/h (0 Bft)
21.10.2014 03:00 7,6 C 94 % 1013,5 hPa 0,0 l/m 0,2 km/h (0 Bft) N 0,00 h 0,000 mm 0,0 UV-I 0 W/m 6,7 C 7,6 C 0,6 km/h (0 Bft)
21.10.2014 04:00 6,6 C 95 % 1013,4 hPa 0,0 l/m 0,0 km/h (0 Bft) N 0,00 h 0,000 mm 0,0 UV-I 0 W/m 5,8 C 6,6 C 0,0 km/h (0 Bft)
21.10.2014 05:00 6,2 C 95 % 1013,0 hPa 0,0 l/m 0,0 km/h (0 Bft) N 0,00 h 0,000 mm 0,0 UV-I 0 W/m 5,5 C 6,2 C 0,1 km/h (0 Bft)
21.10.2014 06:00 6,0 C 96 % 1012,5 hPa 0,0 l/m 0,0 km/h (0 Bft) N 0,00 h 0,000 mm 0,0 UV-I 0 W/m 5,4 C 6,0 C 0,3 km/h (0 Bft)
21.10.2014 07:00 5,6 C 96 % 1012,4 hPa 0,0 l/m 0,0 km/h (0 Bft) N 0,00 h 0,000 mm 0,0 UV-I 10 W/m 5,1 C 5,6 C 0,0 km/h (0 Bft)
21.10.2014 08:00 6,5 C 97 % 1012,5 hPa 0,0 l/m 1,0 km/h (0 Bft) N 0,12 h 0,000 mm 0,0 UV-I 37 W/m 6,1 C 6,5 C 2,3 km/h (1 Bft)
21.10.2014 09:00 9,6 C 97 % 1012,0 hPa 0,0 l/m 5,9 km/h (2 Bft) W-SW 1,00 h 0,025 mm 0,5 UV-I 99 W/m 9,1 C 9,1 C 10,4 km/h (2 Bft)
21.10.2014 10:00 10,4 C 93 % 1011,7 hPa 0,0 l/m 6,7 km/h (2 Bft) W-SW 1,00 h 0,051 mm 0,9 UV-I 180 W/m 9,3 C 9,7 C 11,3 km/h (2 Bft)
21.10.2014 11:00 11,9 C 85 % 1011,2 hPa 0,0 l/m 10,2 km/h (2 Bft) W-SW 1,00 h 0,102 mm 1,6 UV-I 324 W/m 9,4 C 9,7 C 16,7 km/h (3 Bft)
21.10.2014 12:00 12,7 C 77 % 1010,4 hPa 0,0 l/m 10,5 km/h (2 Bft) SW 1,00 h 0,203 mm 1,8 UV-I 292 W/m 8,7 C 10,4 C 16,5 km/h (3 Bft)
21.10.2014 13:00 12,9 C 75 % 1009,5 hPa 0,0 l/m 12,0 km/h (2 Bft) W-SW 1,00 h 0,203 mm 1,5 UV-I 211 W/m 8,6 C 10,0 C 19,0 km/h (3 Bft)
21.10.2014 14:00 12,9 C 76 % 1008,2 hPa 0,0 l/m 13,2 km/h (3 Bft) W-SW 1,00 h 0,152 mm 1,1 UV-I 169 W/m 8,8 C 9,5 C 20,2 km/h (4 Bft)
21.10.2014 15:00 12,9 C 77 % 1006,9 hPa 0,0 l/m 7,1 km/h (2 Bft) SW 1,00 h 0,127 mm 0,7 UV-I 124 W/m 9,0 C 12,1 C 11,5 km/h (2 Bft)
21.10.2014 16:00 13,1 C 77 % 1005,8 hPa 0,0 l/m 8,6 km/h (2 Bft) SW 0,78 h 0,076 mm 0,6 UV-I 104 W/m 9,2 C 11,7 C 13,6 km/h (3 Bft)
21.10.2014 17:00 12,7 C 80 % 1004,7 hPa 0,0 l/m 8,7 km/h (2 Bft) SW 0,00 h 0,076 mm 0,0 UV-I 23 W/m 9,2 C 11,2 C 13,5 km/h (3 Bft)
21.10.2014 18:00 12,0 C 85 % 1003,9 hPa 0,4 l/m 6,5 km/h (2 Bft) S 0,00 h 0,025 mm 0,0 UV-I 0 W/m 9,5 C 11,4 C 10,6 km/h (2 Bft)
21.10.2014 19:00 11,3 C 91 % 1002,7 hPa 0,4 l/m 3,0 km/h (1 Bft) S-SO 0,00 h 0,025 mm 0,0 UV-I 0 W/m 9,8 C 11,3 C 5,1 km/h (1 Bft)
21.10.2014 20:00 10,9 C 93 % 1001,1 hPa 0,8 l/m 2,4 km/h (1 Bft) O-SO 0,00 h 0,000 mm 0,0 UV-I 0 W/m 9,9 C 10,9 C 4,8 km/h (1 Bft)
21.10.2014 21:00 10,5 C 93 % 1000,7 hPa 5,4 l/m 8,7 km/h (2 Bft) N 0,00 h 0,000 mm 0,0 UV-I 0 W/m 9,4 C 8,2 C 14,6 km/h (3 Bft)
21.10.2014 22:00 8,2 C 92 % 1002,2 hPa 0,2 l/m 9,5 km/h (2 Bft) W 0,00 h 0,000 mm 0,0 UV-I 0 W/m 6,9 C 5,7 C 15,1 km/h (3 Bft)
21.10.2014 23:00 7,9 C 92 % 1003,7 hPa 0,2 l/m 18,7 km/h (3 Bft) W 0,00 h 0,000 mm 0,0 UV-I 0 W/m 6,7 C 1,2 C 28,2 km/h (5 Bft)
22.10.2014 00:00 7,2 C 90 % 1006,0 hPa 0,0 l/m 19,5 km/h (3 Bft) W 0,00 h 0,025 mm 0,0 UV-I 0 W/m 5,7 C -0,0 C 30,4 km/h (5 Bft)
22.10.2014 01:00 6,7 C 89 % 1006,9 hPa 0,0 l/m 17,1 km/h (3 Bft) W 0,00 h 0,025 mm 0,0 UV-I 0 W/m 5,0 C 0,3 C 27,5 km/h (5 Bft)
22.10.2014 02:00 6,4 C 89 % 1007,9 hPa 0,0 l/m 16,7 km/h (3 Bft) W 0,00 h 0,025 mm 0,0 UV-I 0 W/m 4,7 C 0,1 C 26,0 km/h (4 Bft)
22.10.2014 03:00 5,8 C 90 % 1008,0 hPa 0,0 l/m 12,0 km/h (2 Bft) W 0,00 h 0,025 mm 0,0 UV-I 0 W/m 4,3 C 1,9 C 18,7 km/h (3 Bft)
22.10.2014 04:00 5,7 C 89 % 1007,8 hPa 0,0 l/m 11,1 km/h (2 Bft) W 0,00 h 0,000 mm 0,0 UV-I 0 W/m 4,0 C 2,3 C 17,6 km/h (3 Bft)
22.10.2014 05:00 5,6 C 88 % 1007,6 hPa 0,0 l/m 10,7 km/h (2 Bft) W 0,00 h 0,025 mm 0,0 UV-I 0 W/m 3,9 C 2,4 C 16,3 km/h (3 Bft)
22.10.2014 06:00 5,8 C 86 % 1007,9 hPa 0,0 l/m 8,4 km/h (2 Bft) W 0,00 h 0,025 mm 0,0 UV-I 0 W/m 3,7 C 4,0 C 13,5 km/h (3 Bft)
22.10.2014 07:00 5,3 C 91 % 1008,0 hPa 0,0 l/m 11,3 km/h (2 Bft) W-SW 0,00 h 0,025 mm 0,0 UV-I 6 W/m 3,9 C 1,7 C 16,6 km/h (3 Bft)
22.10.2014 08:00 4,7 C 92 % 1008,8 hPa 1,4 l/m 12,6 km/h (3 Bft) W 0,00 h 0,000 mm 0,0 UV-I 10 W/m 3,6 C 0,2 C 19,1 km/h (3 Bft)
22.10.2014 09:00 3,7 C 93 % 1009,6 hPa 1,8 l/m 10,0 km/h (2 Bft) W-NW 0,00 h 0,025 mm 0,0 UV-I 13 W/m 2,7 C 0,7 C 15,2 km/h (3 Bft)
22.10.2014 10:00 3,9 C 95 % 1009,8 hPa 0,0 l/m 7,3 km/h (2 Bft) W-NW 0,27 h 0,000 mm 0,9 UV-I 74 W/m 3,2 C 2,5 C 11,5 km/h (2 Bft)
22.10.2014 11:00 6,1 C 92 % 1009,7 hPa 0,2 l/m 13,7 km/h (3 Bft) W 1,00 h 0,025 mm 1,1 UV-I 232 W/m 4,9 C 1,2 C 21,9 km/h (4 Bft)
22.10.2014 12:00 6,1 C 90 % 1009,8 hPa 0,0 l/m 12,6 km/h (2 Bft) W 1,00 h 0,102 mm 0,8 UV-I 137 W/m 4,5 C 1,9 C 20,3 km/h (4 Bft)
22.10.2014 13:00 6,1 C 90 % 1009,4 hPa 0,0 l/m 13,9 km/h (3 Bft) W 0,98 h 0,076 mm 1,0 UV-I 152 W/m 4,7 C 1,2 C 21,8 km/h (4 Bft)
22.10.2014 14:00 5,8 C 91 % 1009,5 hPa 0,0 l/m 13,2 km/h (3 Bft) W 0,18 h 0,076 mm 0,5 UV-I 39 W/m 4,5 C 1,1 C 19,9 km/h (4 Bft)
22.10.2014 15:00 5,6 C 92 % 1009,3 hPa 0,2 l/m 12,9 km/h (3 Bft) W 0,00 h 0,025 mm 0,0 UV-I 28 W/m 4,3 C 1,0 C 19,1 km/h (3 Bft)
22.10.2014 16:00 5,1 C 93 % 1009,6 hPa 0,8 l/m 12,0 km/h (2 Bft) W 0,00 h 0,025 mm 0,0 UV-I 19 W/m 4,0 C 1,0 C 18,2 km/h (3 Bft)
22.10.2014 17:00 4,4 C 93 % 1009,7 hPa 0,4 l/m 13,2 km/h (3 Bft) W 0,00 h 0,025 mm 0,0 UV-I 13 W/m 3,3 C -0,5 C 20,2 km/h (4 Bft)
22.10.2014 18:00 4,0 C 93 % 1010,0 hPa 0,0 l/m 7,1 km/h (2 Bft) W-SW 0,00 h 0,000 mm 0,0 UV-I 0 W/m 3,0 C 2,8 C 11,1 km/h (2 Bft)
22.10.2014 19:00 4,1 C 95 % 1010,1 hPa 0,6 l/m 3,2 km/h (1 Bft) W-SW 0,00 h 0,000 mm 0,0 UV-I 0 W/m 3,3 C 4,1 C 6,1 km/h (2 Bft)
22.10.2014 20:00 4,6 C 96 % 1010,0 hPa 0,8 l/m 1,8 km/h (1 Bft) W-SW 0,00 h 0,000 mm 0,0 UV-I 0 W/m 4,0 C 4,6 C 3,9 km/h (1 Bft)
22.10.2014 21:00 5,3 C 96 % 1010,4 hPa 1,0 l/m 0,4 km/h (0 Bft) N 0,00 h 0,000 mm 0,0 UV-I 0 W/m 4,7 C 5,3 C 1,4 km/h (1 Bft)
22.10.2014 22:00 5,8 C 97 % 1010,8 hPa 1,8 l/m 2,0 km/h (1 Bft) W-NW 0,00 h 0,000 mm 0,0 UV-I 0 W/m 5,3 C 5,6 C 3,8 km/h (1 Bft)
22.10.2014 23:00 7,2 C 98 % 1011,3 hPa 0,6 l/m 10,4 km/h (2 Bft) N-NW 0,00 h 0,000 mm 0,0 UV-I 0 W/m 6,9 C 4,4 C 16,3 km/h (3 Bft)
23.10.2014 00:00 7,7 C 97 % 1012,1 hPa 0,4 l/m 11,6 km/h (2 Bft) NW 0,00 h 0,000 mm 0,0 UV-I 0 W/m 7,3 C 4,3 C 18,6 km/h (3 Bft)
23.10.2014 01:00 7,8 C 96 % 1012,6 hPa 0,4 l/m 14,2 km/h (3 Bft) NW 0,00 h 0,000 mm 0,0 UV-I 0 W/m 7,2 C 3,0 C 22,2 km/h (4 Bft)
23.10.2014 02:00 7,8 C 96 % 1013,4 hPa 0,2 l/m 10,7 km/h (2 Bft) NW 0,00 h 0,000 mm 0,0 UV-I 0 W/m 7,2 C 4,9 C 16,7 km/h (3 Bft)
23.10.2014 03:00 7,7 C 96 % 1014,0 hPa 0,0 l/m 15,1 km/h (3 Bft) NW 0,00 h 0,000 mm 0,0 UV-I 0 W/m 7,1 C 2,5 C 24,4 km/h (4 Bft)
23.10.2014 04:00 7,7 C 95 % 1014,6 hPa 0,0 l/m 13,7 km/h (3 Bft) N-NW 0,00 h 0,000 mm 0,0 UV-I 0 W/m 6,9 C 3,1 C 22,2 km/h (4 Bft)
23.10.2014 05:00 7,7 C 95 % 1015,6 hPa 0,0 l/m 14,1 km/h (3 Bft) NW 0,00 h 0,000 mm 0,0 UV-I 0 W/m 7,0 C 3,0 C 21,7 km/h (4 Bft)
23.10.2014 06:00 7,5 C 95 % 1016,5 hPa 0,2 l/m 9,9 km/h (2 Bft) N-NW 0,00 h 0,000 mm 0,0 UV-I 0 W/m 6,8 C 5,1 C 16,2 km/h (3 Bft)
23.10.2014 07:00 7,3 C 95 % 1017,5 hPa 0,0 l/m 10,5 km/h (2 Bft) N-NW 0,00 h 0,000 mm 0,0 UV-I 0 W/m 6,6 C 4,4 C 16,6 km/h (3 Bft)
23.10.2014 08:00 7,2 C 94 % 1018,7 hPa 0,0 l/m 10,4 km/h (2 Bft) N-NW 0,00 h 0,000 mm 0,0 UV-I 6 W/m 6,4 C 4,4 C 16,5 km/h (3 Bft)
23.10.2014 09:00 7,2 C 94 % 1019,6 hPa 0,0 l/m 8,8 km/h (2 Bft) N-NW 0,00 h 0,000 mm 0,0 UV-I 25 W/m 6,3 C 5,3 C 13,8 km/h (3 Bft)
23.10.2014 10:00 7,2 C 95 % 1020,5 hPa 0,6 l/m 7,8 km/h (2 Bft) N-NW 0,27 h 0,025 mm 0,5 UV-I 47 W/m 6,5 C 6,0 C 12,8 km/h (3 Bft)
23.10.2014 11:00 7,6 C 95 % 1021,0 hPa 0,0 l/m 9,2 km/h (2 Bft) N-NW 0,95 h 0,025 mm 0,8 UV-I 98 W/m 6,8 C 5,4 C 14,4 km/h (3 Bft)
23.10.2014 12:00 8,1 C 94 % 1021,3 hPa 0,0 l/m 7,8 km/h (2 Bft) N-NW 1,00 h 0,051 mm 0,6 UV-I 90 W/m 7,2 C 6,7 C 12,9 km/h (3 Bft)
23.10.2014 13:00 8,4 C 92 % 1021,5 hPa 0,0 l/m 11,6 km/h (2 Bft) N-NW 1,00 h 0,051 mm 0,8 UV-I 128 W/m 7,2 C 5,0 C 17,7 km/h (3 Bft)
23.10.2014 14:00 8,7 C 92 % 1021,5 hPa 0,0 l/m 11,6 km/h (2 Bft) N-NW 1,00 h 0,076 mm 0,8 UV-I 118 W/m 7,4 C 5,4 C 17,7 km/h (3 Bft)
23.10.2014 15:00 8,4 C 92 % 1021,9 hPa 0,0 l/m 10,8 km/h (2 Bft) N-NW 0,58 h 0,051 mm 0,6 UV-I 58 W/m 7,2 C 5,5 C 16,9 km/h (3 Bft)
23.10.2014 16:00 8,1 C 93 % 1022,4 hPa 0,0 l/m 5,0 km/h (1 Bft) N-NW 0,00 h 0,025 mm 0,0 UV-I 14 W/m 7,0 C 7,7 C 8,5 km/h (2 Bft)
23.10.2014 17:00 8,1 C 93 % 1022,7 hPa 0,0 l/m 4,2 km/h (1 Bft) N-NW 0,00 h 0,000 mm 0,0 UV-I 8 W/m 7,0 C 8,0 C 7,6 km/h (2 Bft)
23.10.2014 18:00 8,0 C 93 % 1023,1 hPa 0,0 l/m 2,3 km/h (1 Bft) N-NW 0,00 h 0,000 mm 0,0 UV-I 0 W/m 7,0 C 8,0 C 4,9 km/h (1 Bft)
23.10.2014 19:00 7,9 C 94 % 1023,5 hPa 0,0 l/m 1,7 km/h (1 Bft) N 0,00 h 0,000 mm 0,0 UV-I 0 W/m 7,0 C 7,9 C 3,7 km/h (1 Bft)
23.10.2014 20:00 7,9 C 95 % 1023,6 hPa 0,0 l/m 1,9 km/h (1 Bft) N 0,00 h 0,000 mm 0,0 UV-I 0 W/m 7,1 C 7,9 C 3,8 km/h (1 Bft)
23.10.2014 21:00 7,8 C 95 % 1023,5 hPa 0,0 l/m 6,8 km/h (2 Bft) N-NW 0,00 h 0,001 mm 0,0 UV-I 0 W/m 7,0 C 6,6 C 10,5 km/h (2 Bft)
23.10.2014 22:00 7,2 C 94 % 1023,8 hPa 0,0 l/m 1,8 km/h (1 Bft) N 0,00 h 0,000 mm 0,0 UV-I 0 W/m 6,3 C 7,2 C 3,9 km/h (1 Bft)
23.10.2014 23:00 6,7 C 95 % 1023,8 hPa 0,0 l/m 1,7 km/h (1 Bft) N 0,00 h 0,000 mm 0,0 UV-I 0 W/m 6,0 C 6,7 C 2,6 km/h (1 Bft)
24.10.2014 00:00 6,7 C 96 % 1023,9 hPa 0,0 l/m 0,4 km/h (0 Bft) N 0,00 h 0,000 mm 0,0 UV-I 0 W/m 6,1 C 6,7 C 1,0 km/h (0 Bft)
24.10.2014 01:00 7,0 C 97 % 1024,0 hPa 0,0 l/m 0,0 km/h (0 Bft) N 0,00 h 0,000 mm 0,0 UV-I 0 W/m 6,5 C 7,0 C 0,3 km/h (0 Bft)
24.10.2014 02:00 7,1 C 97 % 1023,9 hPa 0,0 l/m 0,0 km/h (0 Bft) N 0,00 h 0,000 mm 0,0 UV-I 0 W/m 6,7 C 7,1 C 0,0 km/h (0 Bft)
24.10.2014 03:00 7,2 C 97 % 1023,8 hPa 0,0 l/m 0,1 km/h (0 Bft) N 0,00 h 0,000 mm 0,0 UV-I 0 W/m 6,8 C 7,2 C 0,3 km/h (0 Bft)
24.10.2014 04:00 7,3 C 97 % 1023,5 hPa 0,0 l/m 0,6 km/h (0 Bft) N 0,00 h 0,000 mm 0,0 UV-I 0 W/m 6,8 C 7,3 C 1,4 km/h (1 Bft)
24.10.2014 05:00 7,0 C 96 % 1023,4 hPa 0,0 l/m 0,1 km/h (0 Bft) N 0,00 h 0,000 mm 0,0 UV-I 0 W/m 6,4 C 7,0 C 0,4 km/h (0 Bft)
24.10.2014 06:00 6,8 C 96 % 1023,6 hPa 0,0 l/m 0,1 km/h (0 Bft) N 0,00 h 0,000 mm 0,0 UV-I 0 W/m 6,2 C 6,8 C 0,5 km/h (0 Bft)
24.10.2014 07:00 6,4 C 96 % 1023,7 hPa 0,0 l/m 0,0 km/h (0 Bft) N 0,00 h 0,000 mm 0,0 UV-I 7 W/m 5,8 C 6,4 C 0,2 km/h (0 Bft)
24.10.2014 08:00 6,3 C 96 % 1024,1 hPa 0,0 l/m 0,4 km/h (0 Bft) N 0,52 h 0,000 mm 0,0 UV-I 53 W/m 5,7 C 6,3 C 1,0 km/h (0 Bft)
24.10.2014 09:00 8,5 C 91 % 1024,3 hPa 0,0 l/m 0,2 km/h (0 Bft) N 1,00 h 0,025 mm 0,6 UV-I 241 W/m 7,2 C 8,5 C 0,9 km/h (0 Bft)
24.10.2014 10:00 10,1 C 87 % 1024,3 hPa 0,0 l/m 2,1 km/h (1 Bft) N 1,00 h 0,102 mm 1,1 UV-I 374 W/m 8,0 C 10,1 C 3,9 km/h (1 Bft)
24.10.2014 11:00 11,1 C 78 % 1023,9 hPa 0,0 l/m 1,8 km/h (1 Bft) N 1,00 h 0,178 mm 1,8 UV-I 465 W/m 7,5 C 11,1 C 3,7 km/h (1 Bft)
24.10.2014 12:00 11,8 C 73 % 1023,5 hPa 0,0 l/m 2,7 km/h (1 Bft) SO 1,00 h 0,229 mm 2,1 UV-I 446 W/m 7,2 C 11,8 C 5,5 km/h (2 Bft)
24.10.2014 13:00 11,9 C 74 % 1022,9 hPa 0,0 l/m 1,9 km/h (1 Bft) S-SO 1,00 h 0,229 mm 1,8 UV-I 356 W/m 7,4 C 11,9 C 4,0 km/h (1 Bft)
24.10.2014 14:00 11,8 C 74 % 1022,4 hPa 0,0 l/m 1,9 km/h (1 Bft) S-SO 1,00 h 0,178 mm 1,2 UV-I 189 W/m 7,3 C 11,8 C 4,1 km/h (1 Bft)
24.10.2014 15:00 12,2 C 71 % 1022,1 hPa 0,0 l/m 2,1 km/h (1 Bft) SO 1,00 h 0,102 mm 0,9 UV-I 212 W/m 7,1 C 12,2 C 4,7 km/h (1 Bft)
24.10.2014 16:00 11,0 C 75 % 1021,8 hPa 0,0 l/m 3,2 km/h (1 Bft) SO 0,30 h 0,102 mm 0,6 UV-I 48 W/m 6,8 C 11,0 C 5,8 km/h (2 Bft)
24.10.2014 17:00 10,1 C 81 % 1021,5 hPa 0,0 l/m 2,2 km/h (1 Bft) SO 0,00 h 0,025 mm 0,0 UV-I 18 W/m 6,9 C 10,1 C 4,4 km/h (1 Bft)
24.10.2014 18:00 8,9 C 84 % 1021,5 hPa 0,0 l/m 0,9 km/h (0 Bft) O 0,00 h 0,025 mm 0,0 UV-I 0 W/m 6,4 C 8,9 C 2,9 km/h (1 Bft)
24.10.2014 19:00 7,4 C 90 % 1021,7 hPa 0,0 l/m 5,0 km/h (1 Bft) O 0,00 h 0,000 mm 0,0 UV-I 0 W/m 5,8 C 7,2 C 9,9 km/h (2 Bft)
24.10.2014 20:00 6,4 C 92 % 1021,8 hPa 0,0 l/m 5,6 km/h (2 Bft) O 0,00 h 0,000 mm 0,0 UV-I 0 W/m 5,2 C 6,0 C 11,0 km/h (2 Bft)
24.10.2014 21:00 5,8 C 94 % 1021,9 hPa 0,0 l/m 3,0 km/h (1 Bft) O 0,00 h 0,000 mm 0,0 UV-I 0 W/m 4,8 C 5,8 C 6,4 km/h (2 Bft)
24.10.2014 22:00 5,7 C 94 % 1022,1 hPa 0,0 l/m 0,9 km/h (0 Bft) O-NO 0,00 h 0,000 mm 0,0 UV-I 0 W/m 4,8 C 5,7 C 2,5 km/h (1 Bft)
24.10.2014 23:00 5,7 C 93 % 1021,9 hPa 0,0 l/m 2,5 km/h (1 Bft) O-SO 0,00 h 0,000 mm 0,0 UV-I 0 W/m 4,8 C 5,7 C 5,5 km/h (2 Bft)
25.10.2014 00:00 5,7 C 93 % 1021,6 hPa 0,0 l/m 0,6 km/h (0 Bft) N 0,00 h 0,000 mm 0,0 UV-I 0 W/m 4,6 C 5,7 C 1,8 km/h (1 Bft)
25.10.2014 01:00 5,2 C 93 % 1021,6 hPa 0,0 l/m 0,0 km/h (0 Bft) N 0,00 h 0,000 mm 0,0 UV-I 0 W/m 4,1 C 5,2 C 0,0 km/h (0 Bft)
25.10.2014 02:00 4,9 C 95 % 1021,7 hPa 0,0 l/m 0,3 km/h (0 Bft) N 0,00 h 0,000 mm 0,0 UV-I 0 W/m 4,1 C 4,9 C 1,0 km/h (0 Bft)
25.10.2014 03:00 5,2 C 95 % 1021,3 hPa 0,0 l/m 0,0 km/h (0 Bft) N 0,00 h 0,000 mm 0,0 UV-I 0 W/m 4,4 C 5,2 C 0,2 km/h (0 Bft)
25.10.2014 04:00 5,5 C 96 % 1021,1 hPa 0,0 l/m 0,2 km/h (0 Bft) N 0,00 h 0,000 mm 0,0 UV-I 0 W/m 4,9 C 5,5 C 0,7 km/h (0 Bft)
25.10.2014 05:00 5,9 C 96 % 1021,1 hPa 0,0 l/m 0,2 km/h (0 Bft) N 0,00 h 0,000 mm 0,0 UV-I 0 W/m 5,3 C 5,9 C 0,9 km/h (0 Bft)
25.10.2014 06:00 5,7 C 95 % 1020,7 hPa 0,0 l/m 0,1 km/h (0 Bft) N 0,00 h 0,000 mm 0,0 UV-I 0 W/m 4,9 C 5,7 C 0,6 km/h (0 Bft)
25.10.2014 07:00 4,7 C 94 % 1020,7 hPa 0,0 l/m 0,3 km/h (0 Bft) N 0,00 h 0,000 mm 0,0 UV-I 6 W/m 3,9 C 4,7 C 1,1 km/h (1 Bft)
25.10.2014 08:00 4,6 C 96 % 1021,2 hPa 0,0 l/m 0,0 km/h (0 Bft) N 0,03 h 0,000 mm 0,0 UV-I 22 W/m 4,0 C 4,6 C 0,3 km/h (0 Bft)
25.10.2014 09:00 5,7 C 96 % 1021,5 hPa 0,0 l/m 2,5 km/h (1 Bft) S-SO 0,98 h 0,000 mm 0,5 UV-I 72 W/m 5,1 C 5,7 C 4,3 km/h (1 Bft)
25.10.2014 10:00 7,2 C 90 % 1021,7 hPa 0,0 l/m 5,1 km/h (1 Bft) S-SO 1,00 h 0,025 mm 0,8 UV-I 181 W/m 5,6 C 7,0 C 8,1 km/h (2 Bft)
25.10.2014 11:00 7,8 C 87 % 1021,8 hPa 0,0 l/m 5,6 km/h (2 Bft) S 1,00 h 0,076 mm 0,8 UV-I 138 W/m 5,9 C 7,6 C 8,9 km/h (2 Bft)
25.10.2014 12:00 7,8 C 86 % 1022,0 hPa 0,0 l/m 5,2 km/h (1 Bft) SW 1,00 h 0,077 mm 0,8 UV-I 119 W/m 5,7 C 7,5 C 8,6 km/h (2 Bft)
25.10.2014 13:00 8,0 C 85 % 1022,0 hPa 0,0 l/m 4,3 km/h (1 Bft) S 1,00 h 0,051 mm 0,9 UV-I 136 W/m 5,7 C 8,0 C 6,7 km/h (2 Bft)
25.10.2014 14:00 8,6 C 83 % 1021,9 hPa 0,0 l/m 4,4 km/h (1 Bft) S 1,00 h 0,076 mm 0,9 UV-I 135 W/m 5,9 C 8,5 C 7,1 km/h (2 Bft)
25.10.2014 15:00 8,2 C 86 % 1022,2 hPa 0,0 l/m 3,8 km/h (1 Bft) SW 1,00 h 0,076 mm 0,5 UV-I 77 W/m 6,0 C 8,1 C 6,4 km/h (2 Bft)
25.10.2014 16:00 8,0 C 88 % 1022,5 hPa 0,0 l/m 3,1 km/h (1 Bft) S-SW 0,58 h 0,051 mm 0,0 UV-I 56 W/m 6,1 C 8,0 C 5,5 km/h (2 Bft)
25.10.2014 17:00 8,0 C 87 % 1022,7 hPa 0,0 l/m 2,9 km/h (1 Bft) W-SW 0,00 h 0,025 mm 0,0 UV-I 15 W/m 6,0 C 8,0 C 5,3 km/h (1 Bft)
25.10.2014 18:00 7,6 C 90 % 1023,3 hPa 0,0 l/m 2,5 km/h (1 Bft) W-SW 0,00 h 0,000 mm 0,0 UV-I 0 W/m 6,0 C 7,6 C 4,6 km/h (1 Bft)
25.10.2014 19:00 7,2 C 92 % 1023,9 hPa 0,0 l/m 0,9 km/h (0 Bft) W-SW 0,00 h 0,000 mm 0,0 UV-I 0 W/m 6,0 C 7,2 C 2,6 km/h (1 Bft)
25.10.2014 20:00 6,9 C 93 % 1024,0 hPa 0,4 l/m 0,7 km/h (0 Bft) W-SW 0,00 h 0,000 mm 0,0 UV-I 0 W/m 5,8 C 6,9 C 1,9 km/h (1 Bft)
25.10.2014 21:00 6,6 C 94 % 1024,2 hPa 0,0 l/m 0,7 km/h (0 Bft) W-SW 0,00 h 0,000 mm 0,0 UV-I 0 W/m 5,7 C 6,6 C 2,1 km/h (1 Bft)
25.10.2014 22:00 6,4 C 95 % 1024,6 hPa 0,0 l/m 0,3 km/h (0 Bft) N 0,00 h 0,000 mm 0,0 UV-I 0 W/m 5,6 C 6,4 C 1,4 km/h (1 Bft)
25.10.2014 23:00 6,3 C 95 % 1025,1 hPa 0,0 l/m 1,1 km/h (1 Bft) S 0,00 h 0,000 mm 0,0 UV-I 0 W/m 5,5 C 6,3 C 2,7 km/h (1 Bft)
26.10.2014 00:00 6,1 C 95 % 1025,4 hPa 0,0 l/m 0,3 km/h (0 Bft) N 0,00 h 0,000 mm 0,0 UV-I 0 W/m 5,4 C 6,1 C 1,1 km/h (1 Bft)
26.10.2014 01:00 6,1 C 96 % 1025,7 hPa 0,0 l/m 0,1 km/h (0 Bft) N 0,00 h 0,000 mm 0,0 UV-I 0 W/m 5,5 C 6,1 C 0,5 km/h (0 Bft)
26.10.2014 02:00 6,1 C 96 % 1026,0 hPa 0,0 l/m 0,7 km/h (0 Bft) S 0,00 h 0,000 mm 0,0 UV-I 0 W/m 5,5 C 6,1 C 1,9 km/h (1 Bft)
26.10.2014 03:00 6,2 C 96 % 1026,3 hPa 0,0 l/m 1,9 km/h (1 Bft) W-SW 0,00 h 0,000 mm 0,0 UV-I 0 W/m 5,6 C 6,2 C 4,0 km/h (1 Bft)
26.10.2014 04:00 6,3 C 96 % 1026,6 hPa 0,0 l/m 0,9 km/h (0 Bft) N 0,00 h 0,000 mm 0,0 UV-I 0 W/m 5,7 C 6,3 C 2,2 km/h (1 Bft)
26.10.2014 05:00 6,2 C 96 % 1026,8 hPa 0,0 l/m 2,6 km/h (1 Bft) S-SW 0,00 h 0,000 mm 0,0 UV-I 0 W/m 5,6 C 6,2 C 5,1 km/h (1 Bft)
26.10.2014 06:00 6,2 C 96 % 1027,0 hPa 0,0 l/m 2,3 km/h (1 Bft) S-SW 0,00 h 0,000 mm 0,0 UV-I 0 W/m 5,6 C 6,2 C 4,7 km/h (1 Bft)
26.10.2014 07:00 6,2 C 96 % 1027,7 hPa 0,0 l/m 2,2 km/h (1 Bft) S 0,00 h 0,000 mm 0,0 UV-I 13 W/m 5,7 C 6,2 C 4,4 km/h (1 Bft)
26.10.2014 08:00 6,5 C 96 % 1028,1 hPa 0,0 l/m 2,0 km/h (1 Bft) S 0,00 h 0,000 mm 0,0 UV-I 35 W/m 5,9 C 6,5 C 4,0 km/h (1 Bft)
26.10.2014 09:00 6,9 C 96 % 1028,6 hPa 0,0 l/m 1,6 km/h (1 Bft) SW 0,87 h 0,025 mm 0,6 UV-I 67 W/m 6,2 C 6,9 C 3,5 km/h (1 Bft)
26.10.2014 10:00 7,6 C 93 % 1028,8 hPa 0,0 l/m 2,6 km/h (1 Bft) S 1,00 h 0,025 mm 0,7 UV-I 107 W/m 6,6 C 7,6 C 5,0 km/h (1 Bft)
26.10.2014 11:00 8,4 C 91 % 1028,7 hPa 0,0 l/m 2,7 km/h (1 Bft) W-SW 1,00 h 0,051 mm 1,2 UV-I 178 W/m 7,0 C 8,4 C 4,9 km/h (1 Bft)
26.10.2014 12:00 9,4 C 88 % 1028,1 hPa 0,0 l/m 2,0 km/h (1 Bft) SW 1,00 h 0,076 mm 1,4 UV-I 244 W/m 7,5 C 9,4 C 4,1 km/h (1 Bft)
26.10.2014 13:00 10,4 C 85 % 1027,7 hPa 0,0 l/m 1,2 km/h (1 Bft) N 1,00 h 0,102 mm 1,3 UV-I 238 W/m 8,0 C 10,4 C 2,6 km/h (1 Bft)
26.10.2014 14:00 11,1 C 84 % 1027,5 hPa 0,0 l/m 0,7 km/h (0 Bft) O-NO 1,00 h 0,102 mm 0,9 UV-I 189 W/m 8,5 C 11,1 C 2,1 km/h (1 Bft)
26.10.2014 15:00 10,9 C 84 % 1027,7 hPa 0,0 l/m 0,3 km/h (0 Bft) N 0,95 h 0,102 mm 0,6 UV-I 88 W/m 8,3 C 10,9 C 0,8 km/h (0 Bft)
26.10.2014 16:00 10,9 C 85 % 1027,7 hPa 0,0 l/m 0,6 km/h (0 Bft) N 0,02 h 0,051 mm 0,0 UV-I 21 W/m 8,4 C 10,9 C 2,0 km/h (1 Bft)
26.10.2014 17:00 10,6 C 87 % 1027,9 hPa 0,0 l/m 0,2 km/h (0 Bft) N 0,00 h 0,000 mm 0,0 UV-I 0 W/m 8,4 C 10,6 C 0,6 km/h (0 Bft)
26.10.2014 18:00 10,0 C 90 % 1028,2 hPa 0,0 l/m 0,1 km/h (0 Bft) N 0,00 h 0,000 mm 0,0 UV-I 0 W/m 8,4 C 10,0 C 0,2 km/h (0 Bft)
26.10.2014 19:00 8,9 C 90 % 1028,3 hPa 0,0 l/m 0,0 km/h (0 Bft) N 0,00 h 0,000 mm 0,0 UV-I 0 W/m 7,3 C 8,9 C 0,3 km/h (0 Bft)
26.10.2014 20:00 7,2 C 91 % 1028,6 hPa 0,0 l/m 0,8 km/h (0 Bft) N 0,00 h 0,000 mm 0,0 UV-I 0 W/m 5,9 C 7,2 C 1,9 km/h (1 Bft)
26.10.2014 21:00 7,2 C 96 % 1028,7 hPa 0,0 l/m 2,8 km/h (1 Bft) O-SO 0,00 h 0,000 mm 0,0 UV-I 0 W/m 6,5 C 7,2 C 6,1 km/h (2 Bft)
26.10.2014 22:00 7,6 C 94 % 1028,6 hPa 0,0 l/m 5,6 km/h (2 Bft) SO 0,00 h 0,000 mm 0,0 UV-I 0 W/m 6,7 C 7,2 C 9,7 km/h (2 Bft)
26.10.2014 23:00 7,4 C 94 % 1028,5 hPa 0,0 l/m 1,9 km/h (1 Bft) SO 0,00 h 0,000 mm 0,0 UV-I 0 W/m 6,5 C 7,4 C 4,1 km/h (1 Bft)
Min-Datum _ 24.10.14 24.10.14 21.10.14 - 20.10.14 - - - - - 22.10.14 22.10.14 20.10.14
_ Min-Zeit 03:41 15:24 21:31 - 01:05 - - - - - 09:52 17:41 03:51
Minimum _ 0,0 C 68 % 1000,1 hPa - 0,0 km/h (0 Bft) - - - - - 2,5 C -4,6 C 0,0 km/h (0 Bft)
Max-Datum _ 20.10.14 21.10.14 26.10.14 21.10.14 21.10.14 - 24.10.14 24.10.14 21.10.14 21.10.14 20.10.14 20.10.14 21.10.14
_ Max-Zeit 14:32 08:37 10:27 21:47 21:51 - 13:26 12:00 12:34 11:53 05:24 14:33 21:51
Maximum _ 15,2 C 98 % 1028,9 hPa 5,4 l/m 32,2 km/h
N (5 Bft)
- 0,07 h 0,229 mm 2,5 UV-I 666 W/m 13,5 C 15,2 C 56,3 km/h
NW (7 Bft)
Durchschnitt _ 8,5 C 91 % 1018,1 hPa #19,6 l/m 4,9 km/h (1 Bft) N #43:31 h #4,692 mm 0,9 UV-I 110 W/m 7,2 C 7,5 C 8,1 km/h (2 Bft)